Time;durP1;ratioP1;P1;durP2;ratioP2;P2;SDS_P1;SDS_P2;PMS_P1;PMS_P2;Temp;Humidity;BMP_temperature;BMP_pressure;BME280_temperature;BME280_humidity;BME280_pressure;Samples;Min_cycle;Max_cycle;Signal;HPM_P1;HPM_P2
2022/03/07 00:01:19;;;;;;;1.98;1.85;;;2.40;71.00;;;;;;626484;229;26544;-68
2022/03/07 00:03:47;;;;;;;2.67;1.58;;;2.40;70.80;;;;;;627203;226;26615;-68
2022/03/07 00:06:15;;;;;;;1.67;1.55;;;2.20;71.60;;;;;;635488;226;26629;-68
2022/03/07 00:08:42;;;;;;;2.10;1.85;;;2.20;71.50;;;;;;635605;226;26873;-68
2022/03/07 00:11:09;;;;;;;2.42;1.73;;;2.20;71.90;;;;;;635585;226;26541;-68
2022/03/07 00:13:36;;;;;;;2.83;1.85;;;2.30;71.90;;;;;;635539;226;27223;-68
2022/03/07 00:16:03;;;;;;;2.58;1.75;;;2.30;71.20;;;;;;634627;225;26547;-68
2022/03/07 00:18:31;;;;;;;1.87;1.77;;;2.30;71.60;;;;;;623003;229;26587;-68
2022/03/07 00:20:58;;;;;;;1.60;1.50;;;2.30;71.80;;;;;;622885;229;27165;-68
2022/03/07 00:23:26;;;;;;;2.17;1.98;;;2.30;71.90;;;;;;622531;229;26611;-68
2022/03/07 00:25:54;;;;;;;2.33;1.90;;;2.30;71.90;;;;;;622892;224;26641;-68
2022/03/07 00:28:21;;;;;;;2.47;1.90;;;2.20;71.80;;;;;;622904;229;27274;-68
2022/03/07 00:30:48;;;;;;;1.80;1.70;;;2.20;71.80;;;;;;622912;230;26612;-68
2022/03/07 00:33:16;;;;;;;1.87;1.70;;;2.20;72.10;;;;;;622819;224;26619;-68
2022/03/07 00:35:43;;;;;;;2.05;1.70;;;2.20;72.70;;;;;;622861;224;26592;-67
2022/03/07 00:38:10;;;;;;;2.55;2.10;;;2.20;72.60;;;;;;622858;229;26605;-67
2022/03/07 00:40:37;;;;;;;2.15;1.58;;;2.20;72.80;;;;;;622907;229;26599;-67
2022/03/07 00:43:07;;;;;;;2.12;1.92;;;2.20;72.90;;;;;;622831;229;26836;-67
2022/03/07 00:45:34;;;;;;;2.30;1.95;;;2.20;73.10;;;;;;622841;229;26595;-67
2022/03/07 00:48:01;;;;;;;1.73;1.62;;;2.10;73.30;;;;;;622899;229;26582;-67
2022/03/07 00:50:28;;;;;;;1.83;1.73;;;2.00;73.90;;;;;;622953;229;26607;-67
2022/03/07 00:52:55;;;;;;;2.42;1.80;;;1.90;74.10;;;;;;623172;228;26844;-67
2022/03/07 00:55:22;;;;;;;1.90;1.73;;;1.90;74.40;;;;;;624483;228;26579;-67
2022/03/07 00:57:50;;;;;;;1.85;1.75;;;1.90;74.80;;;;;;625036;229;26544;-67
2022/03/07 01:00:18;;;;;;;2.60;1.70;;;1.70;75.50;;;;;;627090;224;26545;-67
2022/03/07 01:02:45;;;;;;;1.55;1.45;;;1.60;76.00;;;;;;626905;228;26584;-67
2022/03/07 01:05:13;;;;;;;2.12;1.67;;;1.60;75.80;;;;;;626774;228;26941;-67
2022/03/07 01:07:41;;;;;;;1.80;1.70;;;1.50;76.30;;;;;;626807;227;26797;-67
2022/03/07 01:10:09;;;;;;;1.98;1.75;;;1.40;76.50;;;;;;625504;226;26543;-67
2022/03/07 01:12:36;;;;;;;1.67;1.60;;;1.40;77.00;;;;;;625913;224;26830;-67
2022/03/07 01:15:05;;;;;;;2.08;1.98;;;1.40;77.50;;;;;;626497;224;26538;-67
2022/03/07 01:17:32;;;;;;;1.80;1.70;;;1.40;77.50;;;;;;626497;229;26528;-67
2022/03/07 01:20:00;;;;;;;1.70;1.60;;;1.40;77.70;;;;;;626509;229;26781;-67
2022/03/07 01:22:27;;;;;;;1.80;1.70;;;1.40;77.90;;;;;;626442;229;26575;-67
2022/03/07 01:24:54;;;;;;;1.80;1.70;;;1.40;78.10;;;;;;626467;229;26539;-67
2022/03/07 01:27:22;;;;;;;1.70;1.60;;;1.40;78.20;;;;;;626468;229;26531;-67
2022/03/07 01:29:49;;;;;;;1.80;1.70;;;1.40;78.10;;;;;;626266;229;26543;-67
2022/03/07 01:32:16;;;;;;;2.22;1.70;;;1.40;77.80;;;;;;626124;229;26551;-67
2022/03/07 01:34:44;;;;;;;1.75;1.65;;;1.40;78.00;;;;;;626234;229;26762;-67
2022/03/07 01:37:11;;;;;;;2.30;2.10;;;1.30;78.20;;;;;;626139;229;26576;-67
2022/03/07 01:39:38;;;;;;;1.58;1.48;;;1.30;78.50;;;;;;626202;229;26533;-67
2022/03/07 01:42:06;;;;;;;1.80;1.70;;;1.30;78.60;;;;;;626119;229;26579;-67
2022/03/07 01:44:34;;;;;;;2.97;2.17;;;1.30;78.60;;;;;;626096;229;26811;-67
2022/03/07 01:47:01;;;;;;;2.58;1.80;;;1.20;79.10;;;;;;626164;229;26536;-67
2022/03/07 01:49:28;;;;;;;1.70;1.60;;;1.20;78.90;;;;;;626200;229;26782;-67
2022/03/07 01:51:56;;;;;;;1.90;1.80;;;1.20;79.30;;;;;;626122;229;26523;-67
2022/03/07 01:54:24;;;;;;;1.65;1.55;;;1.10;79.50;;;;;;626173;224;26532;-67
2022/03/07 01:56:51;;;;;;;2.05;1.67;;;1.10;79.40;;;;;;626004;229;26538;-67
2022/03/07 01:59:19;;;;;;;1.58;1.50;;;1.20;79.50;;;;;;623131;229;26523;-67
2022/03/07 02:01:47;;;;;;;1.70;1.60;;;1.20;79.80;;;;;;622772;224;26614;-67
2022/03/07 02:04:14;;;;;;;1.77;1.67;;;1.30;79.70;;;;;;622954;228;27255;-67
2022/03/07 02:06:41;;;;;;;1.60;1.50;;;1.30;79.80;;;;;;624666;228;26854;-67
2022/03/07 02:09:10;;;;;;;2.00;1.67;;;1.40;78.90;;;;;;624091;228;26542;-67
2022/03/07 02:11:38;;;;;;;1.50;1.40;;;1.40;79.10;;;;;;623742;223;26583;-68
2022/03/07 02:14:12;;;;;;;1.70;1.60;;;1.40;79.10;;;;;;623595;229;26590;-67
2022/03/07 02:16:39;;;;;;;1.98;1.60;;;1.40;78.90;;;;;;623490;229;26535;-67
2022/03/07 02:19:06;;;;;;;1.30;1.30;;;1.40;79.00;;;;;;623520;229;26786;-67
2022/03/07 02:21:34;;;;;;;1.85;1.70;;;1.30;79.30;;;;;;625398;226;26547;-67
2022/03/07 02:24:02;;;;;;;2.22;1.70;;;1.30;79.30;;;;;;623708;229;26616;-67
2022/03/07 02:26:30;;;;;;;1.65;1.40;;;1.30;79.30;;;;;;623177;229;26589;-67
2022/03/07 02:28:57;;;;;;;1.62;1.52;;;1.40;79.20;;;;;;623267;229;27187;-67
2022/03/07 02:31:25;;;;;;;1.87;1.50;;;1.30;79.10;;;;;;623144;229;26603;-67
2022/03/07 02:33:53;;;;;;;1.73;1.60;;;1.30;79.00;;;;;;623228;224;26606;-67
2022/03/07 02:36:20;;;;;;;1.80;1.70;;;1.30;79.00;;;;;;623165;229;26810;-67
2022/03/07 02:38:47;;;;;;;1.80;1.55;;;1.30;79.20;;;;;;623187;230;26591;-67
2022/03/07 02:41:14;;;;;;;1.83;1.73;;;1.30;79.10;;;;;;622989;229;26821;-67
2022/03/07 02:43:41;;;;;;;1.27;1.27;;;1.20;79.50;;;;;;622874;229;26608;-67
2022/03/07 02:46:09;;;;;;;1.50;1.40;;;1.20;79.80;;;;;;622891;229;26598;-67
2022/03/07 02:48:37;;;;;;;2.40;1.40;;;1.00;80.20;;;;;;622902;230;26584;-67
2022/03/07 02:51:04;;;;;;;1.85;1.70;;;1.00;80.20;;;;;;622838;224;26636;-67
2022/03/07 02:53:31;;;;;;;1.35;1.35;;;1.00;80.50;;;;;;622865;229;26606;-67
2022/03/07 02:55:58;;;;;;;1.40;1.30;;;0.90;80.50;;;;;;622836;229;26818;-67
2022/03/07 02:58:25;;;;;;;1.70;1.30;;;0.90;80.60;;;;;;629849;226;26616;-67
2022/03/07 03:00:53;;;;;;;2.17;1.50;;;0.90;81.00;;;;;;635282;226;26916;-68
2022/03/07 03:03:21;;;;;;;1.50;1.40;;;0.80;81.60;;;;;;635139;226;26563;-67
2022/03/07 03:05:49;;;;;;;1.50;1.40;;;0.80;81.90;;;;;;625441;226;26604;-67
2022/03/07 03:08:17;;;;;;;1.50;1.40;;;0.80;82.70;;;;;;635278;221;26553;-67
2022/03/07 03:10:44;;;;;;;1.73;1.62;;;0.80;82.20;;;;;;635223;226;26860;-67
2022/03/07 03:13:11;;;;;;;2.55;1.60;;;0.80;82.30;;;;;;635193;226;26556;-67
2022/03/07 03:15:38;;;;;;;1.80;1.70;;;0.70;83.10;;;;;;635261;226;26827;-67
2022/03/07 03:18:06;;;;;;;1.65;1.55;;;0.70;83.60;;;;;;636969;224;26602;-67
2022/03/07 03:20:34;;;;;;;1.37;1.37;;;0.60;83.80;;;;;;636447;226;26504;-67
2022/03/07 03:23:02;;;;;;;1.50;1.40;;;0.70;83.90;;;;;;636104;222;26641;-67
2022/03/07 03:25:29;;;;;;;1.42;1.40;;;0.60;84.40;;;;;;636091;226;26587;-67
2022/03/07 03:27:56;;;;;;;1.60;1.50;;;0.60;85.30;;;;;;628429;225;26582;-67
2022/03/07 03:30:24;;;;;;;1.40;1.30;;;0.50;84.60;;;;;;635884;226;26788;-67
2022/03/07 03:32:51;;;;;;;1.35;1.33;;;0.50;84.90;;;;;;635805;225;26628;-67
2022/03/07 03:35:18;;;;;;;1.50;1.40;;;0.50;85.00;;;;;;635669;226;26667;-67
2022/03/07 03:37:45;;;;;;;1.30;1.30;;;0.50;85.10;;;;;;635600;222;26533;-67
2022/03/07 03:40:12;;;;;;;1.60;1.50;;;0.50;85.70;;;;;;635520;226;26533;-67
2022/03/07 03:42:40;;;;;;;1.60;1.30;;;0.40;86.70;;;;;;635504;222;26603;-67
2022/03/07 03:45:09;;;;;;;1.40;1.40;;;0.30;86.60;;;;;;635533;226;26644;-67
2022/03/07 03:47:36;;;;;;;2.17;1.60;;;0.30;87.30;;;;;;635487;226;26553;-67
2022/03/07 03:50:05;;;;;;;1.40;1.30;;;0.30;87.50;;;;;;635537;226;27202;-68
2022/03/07 03:52:32;;;;;;;1.70;1.60;;;0.30;87.90;;;;;;635413;226;26629;-67
2022/03/07 03:55:02;;;;;;;1.65;1.48;;;0.30;88.70;;;;;;635146;226;27402;-67
2022/03/07 03:57:27;;;;;;;1.40;1.30;;;0.30;89.00;;;;;;635572;225;26555;-67
2022/03/07 03:59:55;;;;;;;2.85;1.70;;;0.30;89.30;;;;;;637908;225;26763;-67
2022/03/07 04:02:22;;;;;;;1.42;1.30;;;0.20;89.80;;;;;;637938;224;26568;-67
2022/03/07 04:04:49;;;;;;;1.65;1.55;;;0.20;90.10;;;;;;637952;221;27174;-68
2022/03/07 04:07:17;;;;;;;1.55;1.45;;;0.30;90.40;;;;;;638026;225;26541;-67
2022/03/07 04:09:45;;;;;;;1.45;1.35;;;0.30;90.80;;;;;;637995;225;26531;-67
2022/03/07 04:12:12;;;;;;;1.55;1.50;;;0.30;90.80;;;;;;637855;225;26595;-67
2022/03/07 04:14:39;;;;;;;1.60;1.37;;;0.40;90.80;;;;;;637948;225;26552;-67
2022/03/07 04:17:06;;;;;;;1.17;1.17;;;0.30;91.20;;;;;;637994;225;26871;-67
2022/03/07 04:19:34;;;;;;;1.33;1.33;;;0.30;91.30;;;;;;637957;221;26560;-67
2022/03/07 04:22:01;;;;;;;1.37;1.27;;;0.30;91.40;;;;;;637890;221;27368;-67
2022/03/07 04:24:30;;;;;;;1.50;1.40;;;0.20;92.20;;;;;;637993;225;26552;-67
2022/03/07 04:26:57;;;;;;;1.85;1.40;;;0.20;92.80;;;;;;637957;225;26547;-67
2022/03/07 04:29:25;;;;;;;1.45;1.35;;;0.20;92.80;;;;;;639486;223;26579;-67
2022/03/07 04:31:52;;;;;;;1.60;1.45;;;0.20;93.10;;;;;;637272;220;26550;-67
2022/03/07 04:34:19;;;;;;;1.80;1.70;;;0.20;93.60;;;;;;631562;223;27277;-67
2022/03/07 04:36:47;;;;;;;1.58;1.48;;;0.20;93.90;;;;;;623761;230;26617;-67
2022/03/07 04:39:14;;;;;;;1.02;1.02;;;0.20;94.10;;;;;;623433;231;27035;-67
2022/03/07 04:41:44;;;;;;;1.50;1.40;;;0.20;94.20;;;;;;623469;226;26525;-68
2022/03/07 04:44:09;;;;;;;2.00;1.48;;;0.20;94.20;;;;;;623414;230;26537;-68
2022/03/07 04:46:36;;;;;;;1.30;1.30;;;0.20;94.00;;;;;;623331;230;26588;-68
2022/03/07 04:49:03;;;;;;;1.00;1.00;;;0.20;93.90;;;;;;623245;230;27052;-68
2022/03/07 04:51:31;;;;;;;2.28;1.27;;;0.20;93.80;;;;;;623202;230;26613;-68
2022/03/07 04:53:58;;;;;;;1.62;1.52;;;0.20;93.70;;;;;;623233;231;26653;-68
2022/03/07 04:56:26;;;;;;;1.40;1.30;;;0.30;93.30;;;;;;623233;230;26674;-69
2022/03/07 04:58:54;;;;;;;1.40;1.30;;;0.30;93.30;;;;;;622812;226;26820;-68
2022/03/07 05:01:21;;;;;;;1.90;1.80;;;0.20;93.10;;;;;;622607;227;26574;-69
2022/03/07 05:03:48;;;;;;;1.25;1.20;;;0.20;93.10;;;;;;622501;231;26805;-68
2022/03/07 05:06:16;;;;;;;1.40;1.30;;;0.10;93.10;;;;;;622246;230;26618;-68
2022/03/07 05:08:42;;;;;;;1.37;1.30;;;0.10;93.10;;;;;;622215;226;26564;-68
2022/03/07 05:11:10;;;;;;;1.30;1.20;;;0.10;93.10;;;;;;622175;231;26572;-68
2022/03/07 05:13:37;;;;;;;1.33;1.23;;;0.10;93.00;;;;;;622183;230;26589;-68
2022/03/07 05:16:05;;;;;;;2.85;1.35;;;0.10;93.00;;;;;;622301;230;26576;-68
2022/03/07 05:18:33;;;;;;;2.30;1.48;;;0.00;92.90;;;;;;622241;230;26575;-68
2022/03/07 05:21:01;;;;;;;1.37;1.33;;;0.00;92.90;;;;;;622204;231;26575;-68
2022/03/07 05:23:29;;;;;;;1.40;1.30;;;0.00;92.90;;;;;;622227;230;26595;-68
2022/03/07 05:25:56;;;;;;;1.30;1.30;;;-0.10;92.80;;;;;;622286;228;26844;-68
2022/03/07 05:28:23;;;;;;;1.17;1.15;;;-0.10;92.90;;;;;;622302;230;26630;-68
2022/03/07 05:30:50;;;;;;;1.40;1.30;;;-0.10;93.00;;;;;;622227;231;26787;-68
2022/03/07 05:33:17;;;;;;;1.40;1.35;;;-0.10;93.10;;;;;;622221;231;26576;-68
2022/03/07 05:35:45;;;;;;;1.65;1.55;;;-0.10;93.10;;;;;;622292;231;26832;-68
2022/03/07 05:38:12;;;;;;;1.15;1.15;;;-0.10;93.40;;;;;;624929;226;26566;-68
2022/03/07 05:40:40;;;;;;;1.40;1.30;;;-0.20;93.40;;;;;;629967;226;26613;-67
2022/03/07 05:43:08;;;;;;;1.23;1.20;;;-0.10;93.60;;;;;;636556;222;26777;-67
2022/03/07 05:45:35;;;;;;;1.15;1.15;;;-0.20;93.50;;;;;;636226;226;26908;-67
2022/03/07 05:48:02;;;;;;;1.60;1.50;;;-0.10;93.80;;;;;;636151;222;26622;-67
2022/03/07 05:50:30;;;;;;;1.58;1.30;;;-0.10;94.60;;;;;;635872;226;26598;-67
2022/03/07 05:52:57;;;;;;;1.33;1.30;;;-0.20;94.30;;;;;;635829;226;26587;-67
2022/03/07 05:55:24;;;;;;;1.50;1.40;;;-0.20;94.50;;;;;;635900;226;26604;-67
2022/03/07 05:57:55;;;;;;;2.10;1.45;;;-0.10;94.70;;;;;;631683;226;26928;-67
2022/03/07 06:00:19;;;;;;;1.60;1.50;;;-0.10;94.90;;;;;;623282;229;26584;-67
2022/03/07 06:02:46;;;;;;;1.37;1.37;;;-0.10;95.10;;;;;;623212;229;27427;-68
2022/03/07 06:05:13;;;;;;;1.40;1.30;;;-0.10;95.50;;;;;;623190;229;26573;-68
2022/03/07 06:07:40;;;;;;;2.87;1.37;;;-0.10;95.10;;;;;;623251;229;26859;-68
2022/03/07 06:10:08;;;;;;;1.10;1.10;;;-0.10;94.80;;;;;;623314;229;26548;-68
2022/03/07 06:12:37;;;;;;;1.05;1.05;;;-0.10;94.80;;;;;;623276;231;26675;-68
2022/03/07 06:15:06;;;;;;;1.20;1.10;;;-0.10;94.80;;;;;;623192;229;26558;-67
2022/03/07 06:17:32;;;;;;;1.52;1.35;;;-0.10;94.60;;;;;;622857;229;26791;-67
2022/03/07 06:19:59;;;;;;;1.25;1.20;;;-0.10;94.90;;;;;;622835;229;26870;-68
2022/03/07 06:22:27;;;;;;;1.17;1.10;;;-0.10;94.70;;;;;;622844;229;26618;-68
2022/03/07 06:24:54;;;;;;;1.27;1.27;;;0.00;94.70;;;;;;622882;230;26845;-68
2022/03/07 06:27:21;;;;;;;1.23;1.20;;;0.00;94.70;;;;;;622905;225;26600;-68
2022/03/07 06:29:49;;;;;;;1.20;1.20;;;-0.10;94.80;;;;;;622871;224;26801;-68
2022/03/07 06:32:16;;;;;;;1.45;1.35;;;-0.10;94.90;;;;;;625239;225;26611;-68
2022/03/07 06:34:44;;;;;;;1.58;1.20;;;0.00;95.10;;;;;;625219;226;26634;-68
2022/03/07 06:37:12;;;;;;;1.23;1.12;;;0.00;95.10;;;;;;625957;224;26597;-68
2022/03/07 06:39:39;;;;;;;2.70;1.50;;;0.00;95.00;;;;;;626141;229;26801;-68
2022/03/07 06:42:07;;;;;;;1.20;1.20;;;0.10;95.00;;;;;;628205;226;26576;-68
2022/03/07 06:44:39;;;;;;;1.62;1.55;;;0.20;95.00;;;;;;626063;225;26613;-68
2022/03/07 06:47:01;;;;;;;1.67;1.58;;;0.20;95.00;;;;;;627266;226;26619;-67
2022/03/07 06:49:28;;;;;;;1.37;1.30;;;0.20;95.20;;;;;;633000;225;26797;-68
2022/03/07 06:51:55;;;;;;;1.42;1.42;;;0.20;95.60;;;;;;626084;227;26661;-68
2022/03/07 06:54:23;;;;;;;1.40;1.30;;;0.30;95.80;;;;;;627138;225;26634;-68
2022/03/07 06:56:51;;;;;;;1.65;1.55;;;0.30;95.70;;;;;;636799;225;26848;-68
2022/03/07 06:59:19;;;;;;;0.98;0.98;;;0.30;95.70;;;;;;638952;225;26594;-68
2022/03/07 07:01:47;;;;;;;1.50;1.40;;;0.40;95.90;;;;;;626499;225;26558;-68
2022/03/07 07:04:14;;;;;;;1.83;1.73;;;0.40;95.60;;;;;;632273;222;26916;-68
2022/03/07 07:06:41;;;;;;;1.45;1.35;;;0.40;95.70;;;;;;625034;229;26607;-68
2022/03/07 07:09:08;;;;;;;1.80;1.30;;;0.50;95.90;;;;;;628300;224;26817;-69
2022/03/07 07:11:36;;;;;;;26.52;2.47;;;0.60;95.70;;;;;;625406;226;26545;-70
2022/03/07 07:14:02;;;;;;;9.70;1.62;;;0.70;96.20;;;;;;623039;229;26845;-69
2022/03/07 07:16:30;;;;;;;2.47;1.65;;;0.80;96.00;;;;;;624655;225;26604;-71
2022/03/07 07:18:58;;;;;;;3.08;1.67;;;0.80;96.00;;;;;;627393;225;26604;-69
2022/03/07 07:21:26;;;;;;;2.60;1.70;;;0.90;96.00;;;;;;628273;226;26821;-70
2022/03/07 07:23:53;;;;;;;4.50;1.80;;;0.90;96.20;;;;;;627573;225;26608;-68
2022/03/07 07:26:20;;;;;;;1.70;1.52;;;0.90;96.10;;;;;;628738;225;26599;-69
2022/03/07 07:28:47;;;;;;;4.82;1.70;;;0.90;96.00;;;;;;627973;225;26868;-67
2022/03/07 07:31:15;;;;;;;47.75;9.88;;;0.90;96.10;;;;;;626204;224;26671;-71
2022/03/07 07:33:44;;;;;;;124.55;19.35;;;1.00;96.00;;;;;;625565;225;26579;-70
2022/03/07 07:36:11;;;;;;;171.90;26.65;;;1.10;96.20;;;;;;628668;225;26829;-70
2022/03/07 07:38:38;;;;;;;123.30;20.98;;;1.10;96.10;;;;;;627121;226;26555;-69
2022/03/07 07:41:07;;;;;;;110.97;19.27;;;1.20;96.00;;;;;;629629;225;26833;-70
2022/03/07 07:43:35;;;;;;;129.10;18.50;;;1.20;96.00;;;;;;628924;225;26577;-67
2022/03/07 07:46:03;;;;;;;113.07;18.67;;;1.30;96.00;;;;;;626912;224;26626;-67
2022/03/07 07:48:43;;;;;;;113.12;19.80;;;1.40;96.10;;;;;;626376;226;26607;-69
2022/03/07 07:51:10;;;;;;;100.50;18.95;;;1.40;96.00;;;;;;627427;225;26607;-71
2022/03/07 07:53:38;;;;;;;101.47;16.55;;;1.60;95.80;;;;;;625285;225;26923;-71
2022/03/07 07:56:05;;;;;;;80.28;16.42;;;1.60;95.90;;;;;;626947;225;27223;-71
2022/03/07 07:58:32;;;;;;;65.28;14.32;;;1.60;95.90;;;;;;626639;225;26607;-69
2022/03/07 08:00:59;;;;;;;35.20;7.70;;;1.70;95.90;;;;;;626454;225;26846;-69
2022/03/07 08:03:26;;;;;;;18.83;6.37;;;1.80;95.90;;;;;;628078;225;26579;-69
2022/03/07 08:05:55;;;;;;;11.98;4.55;;;2.00;95.70;;;;;;627658;225;26846;-69
2022/03/07 08:08:22;;;;;;;16.83;4.55;;;2.00;95.50;;;;;;629647;222;26798;-70
2022/03/07 08:10:50;;;;;;;10.77;3.33;;;2.10;95.50;;;;;;627991;225;26548;-69
2022/03/07 08:13:18;;;;;;;9.00;3.90;;;2.20;95.40;;;;;;627738;225;26669;-69
2022/03/07 08:15:51;;;;;;;11.98;4.32;;;2.20;95.10;;;;;;627363;222;26634;-70
2022/03/07 08:18:18;;;;;;;12.80;3.10;;;2.20;95.00;;;;;;627574;225;26535;-69
2022/03/07 08:20:46;;;;;;;11.77;4.05;;;2.30;94.90;;;;;;625426;222;26534;-69
2022/03/07 08:23:14;;;;;;;8.18;3.60;;;2.40;94.80;;;;;;624603;222;26650;-69
2022/03/07 08:25:41;;;;;;;9.38;3.53;;;2.30;94.60;;;;;;626645;225;26789;-69
2022/03/07 08:28:09;;;;;;;8.40;3.50;;;2.40;94.50;;;;;;627149;225;26594;-69
2022/03/07 08:30:36;;;;;;;8.40;3.75;;;2.50;94.30;;;;;;631361;225;26896;-70
2022/03/07 08:33:03;;;;;;;7.25;3.17;;;2.50;94.40;;;;;;627214;226;26636;-69
2022/03/07 08:35:30;;;;;;;6.28;3.15;;;2.70;94.00;;;;;;629759;225;26602;-70
2022/03/07 08:37:58;;;;;;;8.73;3.65;;;2.90;93.30;;;;;;626239;225;26593;-67
2022/03/07 08:40:25;;;;;;;14.20;4.12;;;2.90;93.20;;;;;;637620;225;26555;-68
2022/03/07 08:42:53;;;;;;;14.32;4.20;;;2.90;92.90;;;;;;628517;220;26582;-65
2022/03/07 08:45:21;;;;;;;86.43;15.48;;;3.00;92.50;;;;;;626903;224;26572;-69
2022/03/07 08:47:50;;;;;;;1999.90;161.90;;;3.00;92.10;;;;;;628964;225;26549;-68
2022/03/07 08:50:18;;;;;;;1999.90;438.45;;;3.10;92.10;;;;;;626042;225;26605;-67
2022/03/07 08:52:43;;;;;;;1999.90;363.70;;;3.20;91.90;;;;;;626166;226;26816;-69
2022/03/07 08:55:10;;;;;;;1280.20;84.85;;;3.30;91.60;;;;;;626342;226;26553;-68
2022/03/07 08:57:38;;;;;;;60.40;17.52;;;3.40;91.40;;;;;;629959;225;26546;-66
2022/03/07 09:00:06;;;;;;;46.58;15.45;;;3.50;90.60;;;;;;625546;225;26815;-71
2022/03/07 09:02:34;;;;;;;60.75;18.58;;;3.70;89.60;;;;;;625178;226;26835;-71
2022/03/07 09:05:02;;;;;;;67.18;20.08;;;3.90;88.20;;;;;;626655;226;26609;-74
2022/03/07 09:07:30;;;;;;;47.83;18.35;;;3.90;87.00;;;;;;627262;226;26592;-74
2022/03/07 09:09:58;;;;;;;42.80;15.73;;;3.90;87.40;;;;;;626124;225;26614;-71
2022/03/07 09:12:28;;;;;;;43.60;14.85;;;4.00;85.80;;;;;;624581;226;26563;-70
2022/03/07 09:14:57;;;;;;;40.08;12.82;;;4.10;85.30;;;;;;626525;225;26541;-70
2022/03/07 09:17:25;;;;;;;25.45;10.52;;;4.20;84.10;;;;;;631777;226;27091;-69
2022/03/07 09:19:52;;;;;;;30.20;9.98;;;4.20;84.10;;;;;;637312;225;26809;-69
2022/03/07 09:22:19;;;;;;;21.15;8.32;;;4.20;87.50;;;;;;629437;223;26596;-70
2022/03/07 09:24:47;;;;;;;23.45;9.57;;;4.20;83.50;;;;;;635956;226;26909;-70
2022/03/07 09:27:14;;;;;;;22.00;9.90;;;4.30;82.90;;;;;;636011;226;26568;-72
2022/03/07 09:29:41;;;;;;;19.48;9.65;;;4.30;83.10;;;;;;636002;226;26850;-71
2022/03/07 09:32:08;;;;;;;16.83;8.80;;;4.50;81.90;;;;;;635800;226;26577;-70
2022/03/07 09:34:35;;;;;;;20.77;9.00;;;4.60;81.30;;;;;;634954;225;26543;-69
2022/03/07 09:37:04;;;;;;;16.87;7.80;;;4.50;79.10;;;;;;629016;225;26581;-69
2022/03/07 09:39:31;;;;;;;17.55;7.75;;;4.50;79.10;;;;;;627759;225;27242;-70
2022/03/07 09:41:59;;;;;;;12.82;6.60;;;4.50;79.90;;;;;;623137;229;26612;-70
2022/03/07 09:44:27;;;;;;;14.57;7.05;;;4.50;78.90;;;;;;623113;229;27302;-71
2022/03/07 09:46:54;;;;;;;13.07;6.75;;;4.90;80.10;;;;;;622958;229;26594;-70
2022/03/07 09:49:22;;;;;;;12.73;6.60;;;4.90;78.90;;;;;;623250;229;26780;-70
2022/03/07 09:51:50;;;;;;;8.48;7.03;;;4.90;78.90;;;;;;622969;224;26814;-70
2022/03/07 09:54:17;;;;;;;9.80;6.03;;;5.00;81.20;;;;;;622976;231;26576;-70
2022/03/07 09:56:44;;;;;;;10.50;5.95;;;5.00;79.20;;;;;;622945;229;26802;-70
2022/03/07 09:59:12;;;;;;;11.15;5.75;;;4.90;79.90;;;;;;622949;230;26611;-70
2022/03/07 10:01:40;;;;;;;7.07;5.35;;;5.10;77.90;;;;;;622922;230;26840;-70
2022/03/07 10:04:07;;;;;;;8.88;5.12;;;5.10;78.50;;;;;;622911;229;26838;-70
2022/03/07 10:06:35;;;;;;;10.23;5.15;;;5.00;77.90;;;;;;622970;229;26604;-70
2022/03/07 10:09:03;;;;;;;8.95;5.43;;;5.10;78.20;;;;;;622969;229;26587;-70
2022/03/07 10:11:31;;;;;;;6.35;5.43;;;5.10;78.90;;;;;;622984;229;26592;-70
2022/03/07 10:13:58;;;;;;;9.30;5.32;;;5.10;78.80;;;;;;622951;229;26887;-70
2022/03/07 10:16:25;;;;;;;5.55;4.65;;;5.00;79.10;;;;;;622983;229;26580;-70
2022/03/07 10:18:52;;;;;;;6.65;4.50;;;5.10;78.80;;;;;;621865;229;26813;-70
2022/03/07 10:21:21;;;;;;;9.07;4.70;;;5.00;78.90;;;;;;622897;229;26596;-70
2022/03/07 10:23:55;;;;;;;9.57;4.62;;;5.00;78.40;;;;;;622975;228;26645;-69
2022/03/07 10:26:22;;;;;;;5.78;4.10;;;4.80;78.00;;;;;;623508;228;26547;-69
2022/03/07 10:28:53;;;;;;;4.70;3.95;;;4.80;78.60;;;;;;624386;228;26792;-69
2022/03/07 10:31:20;;;;;;;9.60;4.22;;;5.00;78.30;;;;;;623900;228;26576;-69
2022/03/07 10:33:48;;;;;;;5.47;4.05;;;4.90;78.10;;;;;;623894;229;26612;-69
2022/03/07 10:36:15;;;;;;;9.13;4.18;;;5.20;77.10;;;;;;623059;229;26534;-70
2022/03/07 10:38:43;;;;;;;4.20;3.80;;;5.20;76.90;;;;;;623609;229;26557;-70
2022/03/07 10:41:11;;;;;;;4.32;3.15;;;5.30;76.60;;;;;;623525;229;26735;-70
2022/03/07 10:43:48;;;;;;;3.75;3.35;;;5.20;76.50;;;;;;623506;229;26792;-70
2022/03/07 10:46:15;;;;;;;5.22;3.75;;;5.30;76.00;;;;;;623312;229;26575;-69
2022/03/07 10:48:43;;;;;;;5.00;3.80;;;5.40;75.70;;;;;;622869;229;26801;-70
2022/03/07 10:51:14;;;;;;;4.95;3.60;;;5.50;75.80;;;;;;623264;229;26642;-70
2022/03/07 10:53:42;;;;;;;4.20;3.58;;;5.60;74.40;;;;;;623570;230;26633;-69
2022/03/07 10:56:10;;;;;;;5.72;3.40;;;5.50;74.50;;;;;;623299;231;26575;-69
2022/03/07 10:58:38;;;;;;;4.93;3.53;;;5.60;73.60;;;;;;623177;229;26632;-69
2022/03/07 11:01:05;;;;;;;5.10;3.28;;;5.60;73.60;;;;;;622443;231;26800;-70
2022/03/07 11:03:33;;;;;;;4.45;3.47;;;5.60;72.90;;;;;;622922;229;26614;-69
2022/03/07 11:05:59;;;;;;;4.15;3.65;;;5.60;72.60;;;;;;622968;230;26812;-70
2022/03/07 11:08:26;;;;;;;3.40;3.05;;;5.70;72.60;;;;;;622968;229;26589;-70
2022/03/07 11:10:54;;;;;;;4.65;3.08;;;5.60;72.70;;;;;;623005;229;26575;-70
2022/03/07 11:13:26;;;;;;;4.40;3.08;;;5.70;73.10;;;;;;622835;229;26623;-70
2022/03/07 11:15:51;;;;;;;4.95;3.15;;;5.80;71.70;;;;;;622939;230;26601;-69
2022/03/07 11:18:18;;;;;;;2.87;2.60;;;5.80;71.90;;;;;;622970;229;26832;-70
2022/03/07 11:20:47;;;;;;;3.22;2.92;;;6.10;71.40;;;;;;623183;226;26591;-71
2022/03/07 11:23:17;;;;;;;4.28;2.78;;;6.20;67.10;;;;;;623691;225;26625;-71
2022/03/07 11:25:45;;;;;;;3.33;2.47;;;6.30;65.90;;;;;;622962;231;26602;-72
2022/03/07 11:28:13;;;;;;;7.68;3.33;;;6.40;65.70;;;;;;622990;231;26805;-72
2022/03/07 11:30:42;;;;;;;6.72;2.70;;;6.30;65.30;;;;;;622939;229;26907;-72
2022/03/07 11:33:15;;;;;;;6.20;2.87;;;6.30;65.40;;;;;;623315;230;26589;-72
2022/03/07 11:35:48;;;;;;;3.55;2.45;;;6.30;66.40;;;;;;623329;229;26553;-71
2022/03/07 11:38:15;;;;;;;5.82;2.58;;;6.20;65.30;;;;;;624411;228;26569;-72
2022/03/07 11:41:01;;;;;;;6.12;2.78;;;6.30;65.90;;;;;;624041;228;26768;-71
2022/03/07 11:43:30;;;;;;;8.45;3.08;;;6.50;64.80;;;;;;623102;229;26677;-71
2022/03/07 11:45:57;;;;;;;5.43;2.33;;;6.50;64.80;;;;;;623772;229;26606;-71
2022/03/07 11:48:25;;;;;;;4.20;2.33;;;6.50;63.40;;;;;;623472;231;26545;-71
2022/03/07 11:50:52;;;;;;;9.60;2.50;;;6.50;63.40;;;;;;623508;229;26567;-71
2022/03/07 11:53:19;;;;;;;5.53;2.28;;;6.50;63.40;;;;;;623488;229;26579;-71
2022/03/07 11:55:47;;;;;;;3.47;2.08;;;6.70;61.10;;;;;;623369;229;26788;-71
2022/03/07 11:58:14;;;;;;;6.07;2.22;;;6.80;60.00;;;;;;623214;229;26588;-71
2022/03/07 12:00:44;;;;;;;4.65;2.33;;;6.90;59.70;;;;;;623176;229;26587;-71
2022/03/07 12:03:09;;;;;;;2.90;2.00;;;7.00;59.90;;;;;;622932;229;26648;-71
2022/03/07 12:05:37;;;;;;;2.75;1.87;;;7.00;59.30;;;;;;623198;229;26587;-71
2022/03/07 12:08:10;;;;;;;3.50;1.80;;;7.00;59.30;;;;;;623215;229;26792;-71
2022/03/07 12:10:38;;;;;;;4.12;2.10;;;7.00;59.20;;;;;;623278;229;26596;-71
2022/03/07 12:13:06;;;;;;;4.72;2.25;;;7.10;59.20;;;;;;623171;229;26595;-69
2022/03/07 12:15:33;;;;;;;2.80;2.08;;;7.00;58.80;;;;;;622904;229;26589;-71
2022/03/07 12:18:01;;;;;;;3.47;2.15;;;7.30;58.80;;;;;;621632;230;26626;-71
2022/03/07 12:20:28;;;;;;;2.35;1.83;;;7.20;58.70;;;;;;622889;229;27328;-71
2022/03/07 12:22:55;;;;;;;3.37;1.98;;;7.30;58.50;;;;;;622930;225;26608;-69
2022/03/07 12:25:22;;;;;;;2.83;2.10;;;7.30;58.40;;;;;;622963;229;26834;-70
2022/03/07 12:27:55;;;;;;;2.55;1.60;;;7.40;58.60;;;;;;622966;230;26591;-69
2022/03/07 12:30:23;;;;;;;2.20;1.80;;;7.30;58.40;;;;;;623020;231;26904;-70
2022/03/07 12:32:50;;;;;;;1.87;1.77;;;7.30;58.80;;;;;;622976;229;26572;-70
2022/03/07 12:35:18;;;;;;;2.50;1.70;;;7.40;57.80;;;;;;623011;229;27230;-70
2022/03/07 12:37:45;;;;;;;1.87;1.58;;;7.50;57.50;;;;;;622975;229;26804;-70
2022/03/07 12:40:12;;;;;;;1.83;1.73;;;7.60;56.90;;;;;;622999;231;26599;-70
2022/03/07 12:42:42;;;;;;;2.60;1.98;;;7.70;55.70;;;;;;622907;229;26603;-69
2022/03/07 12:45:08;;;;;;;2.45;1.80;;;7.70;54.50;;;;;;622831;229;27235;-70
2022/03/07 12:47:35;;;;;;;3.45;1.73;;;7.70;53.80;;;;;;623197;231;26840;-71
2022/03/07 12:50:02;;;;;;;2.53;1.42;;;7.70;53.80;;;;;;624190;228;26597;-71
2022/03/07 12:52:29;;;;;;;2.50;1.80;;;7.70;54.20;;;;;;624245;228;26809;-70
2022/03/07 12:54:56;;;;;;;1.87;1.67;;;7.80;54.90;;;;;;623646;229;26593;-70